Time;durP1;ratioP1;P1;durP2;ratioP2;P2;SDS_P1;SDS_P2;PMS_P1;PMS_P2;Temp;Humidity;BMP_temperature;BMP_pressure;BME280_temperature;BME280_humidity;BME280_pressure;Samples;Min_cycle;Max_cycle;Signal;HPM_P1;HPM_P2
2022/02/11 00:01:34;;;;;;;11.97;8.50;;;3.90;99.90;;;;;;5107129;28;20385;-83
2022/02/11 00:04:07;;;;;;;11.98;8.45;;;3.90;99.90;;;;;;5112649;28;20398;-83
2022/02/11 00:07:00;;;;;;;9.65;8.07;;;3.80;99.90;;;;;;5095556;28;20420;-82
2022/02/11 00:09:26;;;;;;;12.27;9.07;;;3.90;99.90;;;;;;5091574;28;20501;-82
2022/02/11 00:11:53;;;;;;;11.17;8.83;;;3.90;99.90;;;;;;5080773;28;20819;-82
2022/02/11 00:14:18;;;;;;;13.73;8.68;;;3.90;99.90;;;;;;5100297;28;20416;-82
2022/02/11 00:16:44;;;;;;;12.33;8.93;;;3.90;99.90;;;;;;5105329;28;21289;-82
2022/02/11 00:19:10;;;;;;;10.93;8.40;;;3.90;99.90;;;;;;5066188;28;20414;-82
2022/02/11 00:21:36;;;;;;;12.77;9.40;;;3.90;99.90;;;;;;5098541;28;20373;-82
2022/02/11 00:24:02;;;;;;;15.73;9.43;;;3.90;99.90;;;;;;5103111;28;20405;-82
2022/02/11 00:26:34;;;;;;;11.70;8.90;;;3.90;99.90;;;;;;5098604;28;20754;-82
2022/02/11 00:34:58;;;;;;;13.45;9.02;;;3.80;99.90;;;;;;5109270;28;20395;-83
2022/02/11 00:37:23;;;;;;;10.73;8.43;;;3.80;99.90;;;;;;5101898;28;20495;-83
2022/02/11 01:06:08;;;;;;;8.65;7.75;;;3.90;99.90;;;;;;5108154;28;20383;-82
2022/02/11 01:08:34;;;;;;;9.57;8.15;;;3.90;99.90;;;;;;5111423;28;20499;-83
2022/02/11 01:11:01;;;;;;;10.90;8.15;;;3.90;99.90;;;;;;5100832;28;20454;-82
2022/02/11 01:13:26;;;;;;;11.32;8.50;;;3.90;99.90;;;;;;5096070;28;20386;-82
2022/02/11 01:16:00;;;;;;;11.40;8.38;;;3.90;99.90;;;;;;5102549;28;20715;-81
2022/02/11 01:18:26;;;;;;;13.70;9.33;;;3.90;99.90;;;;;;5095190;28;20424;-82
2022/02/11 01:20:59;;;;;;;11.00;9.43;;;3.90;99.90;;;;;;5087801;28;20470;-82
2022/02/11 01:34:09;;;;;;;13.27;9.40;;;4.00;99.90;;;;;;5103565;28;20412;-83
2022/02/11 01:37:05;;;;;;;14.02;9.82;;;4.10;99.90;;;;;;5084967;28;20898;-82
2022/02/11 01:53:19;;;;;;;18.77;11.67;;;4.30;99.90;;;;;;5109408;28;20420;-82
2022/02/11 02:09:00;;;;;;;15.52;9.65;;;4.60;99.90;;;;;;5092757;28;21157;-83
2022/02/11 02:11:47;;;;;;;14.77;10.00;;;4.70;99.90;;;;;;5099648;28;20376;-83
2022/02/11 02:18:00;;;;;;;14.18;9.80;;;4.70;99.90;;;;;;5111889;28;20389;-83
2022/02/11 02:25:05;;;;;;;15.83;10.40;;;4.70;99.90;;;;;;5116699;28;20427;-83
2022/02/11 02:57:06;;;;;;;16.88;12.45;;;4.40;99.90;;;;;;5107616;28;20506;-82
2022/02/11 03:00:04;;;;;;;18.73;12.50;;;4.30;99.90;;;;;;5089546;28;20735;-83
2022/02/11 03:34:58;;;;;;;20.80;13.47;;;4.70;99.90;;;;;;5108708;28;20391;-82
2022/02/11 03:51:30;;;;;;;20.88;13.80;;;4.70;99.90;;;;;;5100190;28;20395;-83
2022/02/11 04:21:19;;;;;;;18.77;11.73;;;4.40;99.90;;;;;;5109683;28;20533;-82
2022/02/11 04:56:05;;;;;;;16.40;11.32;;;4.20;99.90;;;;;;5104412;28;20415;-82
2022/02/11 05:01:17;;;;;;;13.40;11.02;;;4.20;99.90;;;;;;5103192;28;20745;-82
2022/02/11 05:03:43;;;;;;;16.93;11.03;;;4.30;99.90;;;;;;5105480;28;20448;-82
2022/02/11 05:06:09;;;;;;;18.53;11.87;;;4.20;99.90;;;;;;5099932;28;20390;-82
2022/02/11 05:08:35;;;;;;;23.23;11.57;;;4.30;99.90;;;;;;5098377;28;20391;-82
2022/02/11 05:11:03;;;;;;;17.05;11.20;;;4.20;99.90;;;;;;5100589;28;20423;-82
2022/02/11 05:13:28;;;;;;;16.92;9.48;;;4.20;99.90;;;;;;5085825;28;20387;-82
2022/02/11 05:15:54;;;;;;;16.70;10.70;;;4.20;99.90;;;;;;5076592;28;20400;-82
2022/02/11 05:18:20;;;;;;;17.83;11.00;;;4.30;99.90;;;;;;5095410;28;20486;-83
2022/02/11 05:20:46;;;;;;;18.10;10.50;;;4.20;99.90;;;;;;5099858;28;20383;-82
2022/02/11 05:23:13;;;;;;;18.30;10.60;;;4.20;99.90;;;;;;5094086;28;20403;-81
2022/02/11 05:25:41;;;;;;;15.27;10.30;;;4.20;99.90;;;;;;5082264;28;20770;-82
2022/02/11 05:28:09;;;;;;;16.70;10.05;;;4.20;99.90;;;;;;5095672;28;20482;-82
2022/02/11 05:30:38;;;;;;;16.23;9.88;;;4.30;99.90;;;;;;5081493;28;20423;-82
2022/02/11 05:33:05;;;;;;;22.65;9.90;;;4.20;99.90;;;;;;5088370;28;20391;-82
2022/02/11 05:35:31;;;;;;;17.98;9.82;;;4.20;99.90;;;;;;5114355;28;20379;-82
2022/02/11 05:37:57;;;;;;;14.47;9.40;;;4.30;99.90;;;;;;5100760;28;20414;-82
2022/02/11 05:40:23;;;;;;;17.53;8.97;;;4.30;99.90;;;;;;5106661;28;20421;-81
2022/02/11 05:42:49;;;;;;;21.58;9.45;;;4.30;99.90;;;;;;5087620;28;20387;-82
2022/02/11 05:45:15;;;;;;;15.27;8.38;;;4.30;99.90;;;;;;5105313;28;20395;-82
2022/02/11 05:47:41;;;;;;;16.50;8.95;;;4.30;99.90;;;;;;5102850;28;20377;-82
2022/02/11 05:50:07;;;;;;;15.52;8.80;;;4.30;99.90;;;;;;5105026;28;20392;-82
2022/02/11 05:52:33;;;;;;;17.48;9.35;;;4.30;99.90;;;;;;5105670;28;20933;-82
2022/02/11 05:55:00;;;;;;;13.48;8.75;;;4.30;99.90;;;;;;5102359;28;20752;-82
2022/02/11 05:57:26;;;;;;;15.80;8.50;;;4.30;99.90;;;;;;5097759;28;20379;-82
2022/02/11 05:59:52;;;;;;;14.50;8.35;;;4.30;99.90;;;;;;5111481;28;20393;-83
2022/02/11 06:02:18;;;;;;;16.90;9.10;;;4.40;99.90;;;;;;5093447;28;20471;-82
2022/02/11 06:04:44;;;;;;;15.98;8.85;;;4.40;99.90;;;;;;5097414;28;20402;-82
2022/02/11 06:07:10;;;;;;;14.85;9.02;;;4.50;99.90;;;;;;5086242;28;20441;-82
2022/02/11 06:09:35;;;;;;;17.35;8.75;;;4.40;99.90;;;;;;5092583;28;20399;-82
2022/02/11 06:12:01;;;;;;;19.98;8.90;;;4.40;99.90;;;;;;5103292;28;20451;-82
2022/02/11 06:14:27;;;;;;;16.95;9.05;;;4.30;99.90;;;;;;5093724;28;20395;-82
2022/02/11 06:16:53;;;;;;;16.53;11.17;;;4.40;99.90;;;;;;5077759;28;20935;-82
2022/02/11 06:19:19;;;;;;;20.27;12.02;;;4.30;99.90;;;;;;5093603;28;20395;-81
2022/02/11 06:21:44;;;;;;;17.80;10.20;;;4.30;99.90;;;;;;5096515;28;20760;-83
2022/02/11 06:24:10;;;;;;;17.63;8.85;;;4.40;99.90;;;;;;5078872;28;20388;-82
2022/02/11 06:26:36;;;;;;;18.63;8.73;;;4.30;99.90;;;;;;5079767;28;21192;-82
2022/02/11 06:29:01;;;;;;;15.43;8.67;;;4.30;99.90;;;;;;5104284;27;20369;-82
2022/02/11 06:31:27;;;;;;;17.60;9.13;;;4.20;99.90;;;;;;5099743;28;20471;-82
2022/02/11 06:33:53;;;;;;;17.83;8.77;;;4.10;99.90;;;;;;5113186;28;21040;-82
2022/02/11 06:36:19;;;;;;;18.10;9.43;;;4.10;99.90;;;;;;5116261;28;20367;-82
2022/02/11 06:38:46;;;;;;;17.85;9.23;;;4.10;99.90;;;;;;5115341;28;20588;-82
2022/02/11 06:41:12;;;;;;;16.20;9.30;;;4.00;99.90;;;;;;5116426;28;20378;-82
2022/02/11 06:43:37;;;;;;;14.57;9.10;;;4.00;99.90;;;;;;5099624;28;20371;-83
2022/02/11 06:46:04;;;;;;;18.37;10.13;;;4.00;99.90;;;;;;5117609;28;20371;-82
2022/02/11 06:48:31;;;;;;;18.77;10.03;;;3.90;99.90;;;;;;5096005;28;20440;-82
2022/02/11 06:50:57;;;;;;;18.90;10.15;;;3.90;99.90;;;;;;5077754;28;20404;-82
2022/02/11 06:53:24;;;;;;;18.40;10.38;;;3.90;99.90;;;;;;5097734;28;20394;-81
2022/02/11 06:55:49;;;;;;;21.88;10.48;;;3.80;99.90;;;;;;5082333;28;20511;-82
2022/02/11 06:58:16;;;;;;;23.30;10.98;;;3.80;99.90;;;;;;5093861;28;20815;-82
2022/02/11 07:00:47;;;;;;;18.92;10.70;;;3.70;99.90;;;;;;5094867;28;20459;-81
2022/02/11 07:03:13;;;;;;;22.15;12.38;;;3.80;99.90;;;;;;5093587;28;20426;-82
2022/02/11 07:05:40;;;;;;;20.90;12.80;;;3.70;99.90;;;;;;5112840;28;20378;-81
2022/02/11 07:08:06;;;;;;;20.15;11.38;;;3.60;99.90;;;;;;5096271;28;20387;-82
2022/02/11 07:10:31;;;;;;;22.83;11.25;;;3.60;99.90;;;;;;5114909;28;20398;-81
2022/02/11 07:12:59;;;;;;;20.70;11.97;;;3.60;99.90;;;;;;5114470;28;20394;-81
2022/02/11 07:15:25;;;;;;;22.58;11.85;;;3.60;99.90;;;;;;5114909;28;20397;-81
2022/02/11 07:17:51;;;;;;;20.80;11.88;;;3.70;99.90;;;;;;5113521;28;20988;-81
2022/02/11 07:20:17;;;;;;;22.10;11.63;;;3.90;99.90;;;;;;5112558;28;20446;-81
2022/02/11 07:22:42;;;;;;;22.40;11.93;;;4.00;99.90;;;;;;5089715;28;20396;-82
2022/02/11 07:25:10;;;;;;;22.47;12.47;;;4.00;99.90;;;;;;5074920;28;20790;-81
2022/02/11 07:27:36;;;;;;;21.52;12.45;;;4.00;99.90;;;;;;5093556;28;20884;-82
2022/02/11 07:30:06;;;;;;;18.10;12.52;;;4.10;99.90;;;;;;5093700;28;20401;-82
2022/02/11 07:32:32;;;;;;;22.90;13.55;;;4.10;99.90;;;;;;5094174;28;20368;-82
2022/02/11 07:34:58;;;;;;;19.33;13.10;;;4.20;99.90;;;;;;5093698;28;20379;-82
2022/02/11 07:37:24;;;;;;;21.45;12.57;;;4.20;99.90;;;;;;5074673;28;20384;-81
2022/02/11 07:39:50;;;;;;;18.77;11.98;;;4.20;99.90;;;;;;5098491;28;20544;-82
2022/02/11 07:42:17;;;;;;;21.27;12.23;;;4.20;99.90;;;;;;5080303;28;20855;-82
2022/02/11 07:44:43;;;;;;;22.30;12.48;;;4.20;99.90;;;;;;5084501;27;20395;-81
2022/02/11 07:47:08;;;;;;;20.67;12.77;;;4.20;99.90;;;;;;5085523;27;20377;-81
2022/02/11 07:49:35;;;;;;;18.95;12.05;;;4.20;99.90;;;;;;5098381;27;20490;-83
2022/02/11 07:52:01;;;;;;;20.05;13.10;;;4.10;99.90;;;;;;5086930;28;20808;-82
2022/02/11 07:54:27;;;;;;;20.00;12.60;;;4.00;99.90;;;;;;5105182;28;20399;-82
2022/02/11 07:56:54;;;;;;;20.60;12.60;;;4.10;99.90;;;;;;5105621;28;20474;-81
2022/02/11 07:59:20;;;;;;;18.65;11.68;;;4.30;99.90;;;;;;5082308;27;20393;-82
2022/02/11 08:01:45;;;;;;;17.20;11.77;;;4.40;99.90;;;;;;5100472;27;20382;-81
2022/02/11 08:04:11;;;;;;;16.80;11.18;;;4.60;99.90;;;;;;5104522;27;20398;-82
2022/02/11 08:06:37;;;;;;;18.30;11.30;;;4.70;99.90;;;;;;5111420;28;20383;-81
2022/02/11 08:09:03;;;;;;;17.77;10.75;;;4.80;99.90;;;;;;5114756;28;20379;-81
2022/02/11 08:11:29;;;;;;;14.13;9.02;;;4.90;99.90;;;;;;5110494;28;20420;-81
2022/02/11 08:13:54;;;;;;;21.10;9.65;;;4.80;99.90;;;;;;5096071;28;20392;-81
2022/02/11 08:16:20;;;;;;;16.25;8.73;;;4.60;99.90;;;;;;5094268;28;20454;-80
2022/02/11 08:18:46;;;;;;;13.70;7.63;;;4.50;99.90;;;;;;5113048;28;20382;-80
2022/02/11 08:21:11;;;;;;;12.13;7.80;;;4.50;99.90;;;;;;5095020;28;20390;-80
2022/02/11 08:23:37;;;;;;;15.83;7.57;;;4.40;99.90;;;;;;5111976;28;20367;-82
2022/02/11 08:26:04;;;;;;;11.67;6.40;;;4.30;99.90;;;;;;5106529;28;20801;-81
2022/02/11 08:28:31;;;;;;;13.93;7.10;;;4.20;99.90;;;;;;5074339;28;20487;-81
2022/02/11 08:30:57;;;;;;;11.63;6.68;;;4.20;99.90;;;;;;5102255;28;20409;-81
2022/02/11 08:33:24;;;;;;;14.10;6.95;;;4.20;99.90;;;;;;5106045;28;20486;-82
2022/02/11 08:35:56;;;;;;;11.75;6.20;;;4.10;99.90;;;;;;5095275;27;20387;-82
2022/02/11 08:38:24;;;;;;;14.73;6.90;;;4.20;99.90;;;;;;5093146;28;20391;-82
2022/02/11 08:40:51;;;;;;;12.77;7.88;;;4.30;99.90;;;;;;5104428;27;20872;-82
2022/02/11 08:43:18;;;;;;;14.23;7.80;;;4.50;99.90;;;;;;5082768;28;20379;-81
2022/02/11 08:45:44;;;;;;;13.98;9.20;;;4.70;99.90;;;;;;5098148;27;20839;-81
2022/02/11 08:48:12;;;;;;;13.48;9.80;;;4.80;99.90;;;;;;5072520;28;20403;-81
2022/02/11 08:50:39;;;;;;;13.90;9.45;;;4.90;99.90;;;;;;5090345;28;20535;-81
2022/02/11 08:53:08;;;;;;;18.38;10.45;;;5.00;99.90;;;;;;5098305;28;20389;-81
2022/02/11 08:55:34;;;;;;;18.13;10.70;;;5.20;99.90;;;;;;5111171;27;20395;-82
2022/02/11 08:58:01;;;;;;;15.90;10.88;;;5.30;99.90;;;;;;5091023;28;20368;-82
2022/02/11 09:00:28;;;;;;;13.98;10.48;;;5.40;99.90;;;;;;5096719;27;20379;-82
2022/02/11 09:02:54;;;;;;;14.30;10.40;;;5.60;99.90;;;;;;5086759;28;20446;-81
2022/02/11 09:05:24;;;;;;;15.68;10.70;;;5.70;99.90;;;;;;5081485;28;20463;-81
2022/02/11 09:07:59;;;;;;;14.43;11.02;;;5.70;99.90;;;;;;5093221;27;20380;-81
2022/02/11 09:10:27;;;;;;;15.38;10.75;;;5.60;99.90;;;;;;5091502;28;20954;-80
2022/02/11 09:12:54;;;;;;;14.27;10.68;;;5.50;99.90;;;;;;5091025;28;20525;-82
2022/02/11 09:15:21;;;;;;;16.75;11.10;;;5.30;99.90;;;;;;5093327;28;20368;-80
2022/02/11 09:17:48;;;;;;;15.05;11.05;;;5.40;99.90;;;;;;5082047;28;20475;-82
2022/02/11 09:20:13;;;;;;;17.33;12.00;;;5.30;99.90;;;;;;5082117;28;20740;-81
2022/02/11 09:22:39;;;;;;;16.90;11.70;;;5.30;99.90;;;;;;5086643;28;21089;-81
2022/02/11 09:25:05;;;;;;;17.05;11.55;;;5.30;99.90;;;;;;5074162;28;20394;-82
2022/02/11 09:27:31;;;;;;;15.82;11.68;;;5.20;99.90;;;;;;5090659;28;20384;-83
2022/02/11 09:29:57;;;;;;;14.07;11.57;;;5.20;99.90;;;;;;5090198;28;20916;-83
2022/02/11 09:32:22;;;;;;;17.37;11.93;;;5.30;99.90;;;;;;5085431;28;20543;-82
2022/02/11 09:34:48;;;;;;;15.88;12.35;;;5.30;99.90;;;;;;5097238;28;20387;-83
2022/02/11 09:37:14;;;;;;;15.77;11.80;;;5.40;99.90;;;;;;5079043;28;20376;-83
2022/02/11 09:39:39;;;;;;;16.98;12.10;;;5.60;99.90;;;;;;5096478;28;20379;-83
2022/02/11 09:42:06;;;;;;;15.18;11.05;;;5.80;99.90;;;;;;5103783;28;20388;-84
2022/02/11 09:44:32;;;;;;;13.85;11.43;;;6.00;99.90;;;;;;5110195;28;20724;-83
2022/02/11 09:46:59;;;;;;;16.27;10.93;;;6.10;99.90;;;;;;5100253;28;20403;-83
2022/02/11 09:49:24;;;;;;;16.50;11.20;;;6.20;99.90;;;;;;5090194;28;20803;-84
2022/02/11 09:51:53;;;;;;;13.55;10.18;;;6.10;99.90;;;;;;5094569;28;20384;-83
2022/02/11 09:54:21;;;;;;;12.60;9.90;;;6.20;99.90;;;;;;5088716;28;20403;-82
2022/02/11 09:56:49;;;;;;;16.27;9.05;;;6.30;99.90;;;;;;5114213;28;20381;-83
2022/02/11 09:59:16;;;;;;;15.02;9.02;;;6.40;99.90;;;;;;5096789;28;20435;-84
2022/02/11 10:01:43;;;;;;;12.73;9.15;;;6.40;99.90;;;;;;5105722;27;20368;-83
2022/02/11 10:04:11;;;;;;;14.55;8.88;;;6.50;99.90;;;;;;5105924;28;20391;-83
2022/02/11 10:06:38;;;;;;;12.38;9.07;;;6.50;99.90;;;;;;5099659;27;20430;-83
2022/02/11 10:09:04;;;;;;;14.45;9.35;;;6.40;99.90;;;;;;5098579;28;20404;-83
2022/02/11 10:11:32;;;;;;;13.40;9.13;;;6.30;99.90;;;;;;5078845;28;20545;-83
2022/02/11 10:14:19;;;;;;;13.43;9.38;;;6.10;99.90;;;;;;5103660;28;20463;-84
2022/02/11 10:17:19;;;;;;;11.20;8.53;;;6.00;99.90;;;;;;5115929;28;20478;-85
2022/02/11 10:19:47;;;;;;;13.43;8.80;;;6.00;99.90;;;;;;5049396;28;20526;-82
2022/02/11 10:22:22;;;;;;;13.48;9.10;;;6.10;99.90;;;;;;5108754;28;20802;-82
2022/02/11 10:24:49;;;;;;;14.55;9.18;;;6.20;99.90;;;;;;5112145;27;20437;-84
2022/02/11 10:27:35;;;;;;;12.32;8.55;;;6.30;99.90;;;;;;5089521;28;20399;-84
2022/02/11 10:30:05;;;;;;;12.40;8.43;;;6.40;99.90;;;;;;5106899;27;20426;-84
2022/02/11 10:32:47;;;;;;;14.20;8.57;;;6.40;99.90;;;;;;5088123;28;20407;-84
2022/02/11 10:35:15;;;;;;;14.45;8.23;;;6.40;99.90;;;;;;5098476;28;20408;-82
2022/02/11 10:38:04;;;;;;;14.40;8.30;;;6.50;99.90;;;;;;5104010;27;20388;-83
2022/02/11 10:40:31;;;;;;;12.40;8.63;;;6.60;99.90;;;;;;5099706;28;20475;-83
2022/02/11 10:42:57;;;;;;;13.93;8.77;;;6.80;99.90;;;;;;5107096;27;20446;-83
2022/02/11 10:45:27;;;;;;;10.03;8.10;;;6.90;99.90;;;;;;5097156;28;20395;-83
2022/02/11 10:48:17;;;;;;;11.48;7.95;;;7.00;99.90;;;;;;5087339;27;20551;-82
2022/02/11 10:51:04;;;;;;;10.57;7.63;;;7.10;99.90;;;;;;5096971;28;20400;-82
2022/02/11 10:53:31;;;;;;;10.68;7.18;;;7.20;99.90;;;;;;5111211;27;20864;-82
2022/02/11 10:56:04;;;;;;;11.90;7.32;;;7.10;99.90;;;;;;5099822;28;20402;-82
2022/02/11 10:58:32;;;;;;;10.82;7.20;;;7.10;99.90;;;;;;5098798;28;20429;-81
2022/02/11 11:01:02;;;;;;;9.23;6.70;;;7.30;99.90;;;;;;5082385;28;20515;-81
2022/02/11 11:03:31;;;;;;;11.57;7.00;;;7.30;99.90;;;;;;5101993;28;20433;-83
2022/02/11 11:05:57;;;;;;;9.52;6.45;;;7.40;99.90;;;;;;5081220;28;20734;-82
2022/02/11 11:08:27;;;;;;;10.45;6.55;;;7.50;99.90;;;;;;5100664;28;20807;-82
2022/02/11 11:10:56;;;;;;;7.47;5.78;;;7.60;99.90;;;;;;5097386;28;20519;-82
2022/02/11 11:13:21;;;;;;;8.90;6.00;;;7.70;99.90;;;;;;5100691;27;20392;-79
2022/02/11 11:15:50;;;;;;;10.20;6.10;;;7.60;99.90;;;;;;5096655;28;20389;-80
2022/02/11 11:18:18;;;;;;;8.88;6.03;;;7.60;99.90;;;;;;5078984;28;20385;-82
2022/02/11 11:20:46;;;;;;;9.07;5.82;;;7.60;99.90;;;;;;5099367;28;20381;-80
2022/02/11 11:23:23;;;;;;;8.52;6.10;;;7.70;99.90;;;;;;5094085;28;20799;-80
2022/02/11 11:25:53;;;;;;;8.65;6.03;;;7.70;99.90;;;;;;5115071;28;20432;-81
2022/02/11 11:28:38;;;;;;;9.02;6.15;;;7.70;99.90;;;;;;5090334;28;20414;-81
2022/02/11 11:31:25;;;;;;;10.55;5.90;;;7.50;99.90;;;;;;5095851;28;20400;-81
2022/02/11 11:34:11;;;;;;;9.93;6.32;;;7.40;99.90;;;;;;5100810;28;20392;-80
2022/02/11 11:36:48;;;;;;;8.00;5.40;;;7.20;99.90;;;;;;5107222;28;20412;-82
2022/02/11 11:39:15;;;;;;;7.90;5.40;;;7.10;99.90;;;;;;5083145;28;20835;-80
2022/02/11 11:41:41;;;;;;;9.10;5.15;;;7.30;99.90;;;;;;5082905;27;20396;-81
2022/02/11 11:44:27;;;;;;;8.55;5.55;;;7.40;99.90;;;;;;5096639;28;20369;-80
2022/02/11 11:46:59;;;;;;;6.00;5.05;;;7.70;99.90;;;;;;5075814;28;20420;-82
2022/02/11 11:49:27;;;;;;;8.63;5.38;;;7.70;99.90;;;;;;5096965;28;20387;-81
2022/02/11 11:51:53;;;;;;;10.45;5.55;;;7.60;99.90;;;;;;5093856;28;20383;-81
2022/02/11 11:54:21;;;;;;;9.10;5.30;;;7.70;99.90;;;;;;5101051;28;20383;-81
2022/02/11 11:56:52;;;;;;;5.82;4.90;;;7.80;99.90;;;;;;5101514;27;20499;-81
2022/02/11 11:59:38;;;;;;;8.68;6.05;;;7.80;99.90;;;;;;5074995;28;20449;-81
2022/02/11 12:02:10;;;;;;;6.57;5.47;;;7.70;99.90;;;;;;5099256;28;20390;-82
2022/02/11 12:04:41;;;;;;;6.10;5.50;;;7.60;99.90;;;;;;5100884;28;20392;-81
2022/02/11 12:07:15;;;;;;;7.57;6.35;;;7.40;99.90;;;;;;5105280;28;20384;-81
2022/02/11 12:09:45;;;;;;;7.55;5.38;;;7.40;99.90;;;;;;5093347;28;20405;-80
2022/02/11 12:12:12;;;;;;;6.50;5.88;;;7.30;99.90;;;;;;5092657;28;20815;-81
2022/02/11 12:14:43;;;;;;;6.00;5.37;;;7.00;99.90;;;;;;5073923;28;20901;-81
2022/02/11 12:17:21;;;;;;;6.07;5.50;;;6.80;99.90;;;;;;5095444;28;20445;-82
2022/02/11 12:19:47;;;;;;;5.57;5.07;;;6.80;99.90;;;;;;5083972;28;20389;-82
2022/02/11 12:22:15;;;;;;;5.40;4.90;;;6.80;99.90;;;;;;5093230;28;20463;-82
2022/02/11 12:27:33;;;;;;;5.87;5.30;;;6.70;99.90;;;;;;5108477;28;20419;-81
2022/02/11 12:30:07;;;;;;;6.47;5.87;;;6.80;99.90;;;;;;5093907;28;20892;-81
2022/02/11 12:32:43;;;;;;;6.78;5.43;;;6.90;99.90;;;;;;5112158;28;21165;-81
2022/02/11 12:35:21;;;;;;;7.35;6.15;;;6.90;99.90;;;;;;5093863;28;20794;-81
2022/02/11 12:37:47;;;;;;;6.45;5.93;;;6.80;99.90;;;;;;5093388;28;20398;-80
2022/02/11 12:40:23;;;;;;;6.45;5.88;;;6.90;99.90;;;;;;5094565;28;20884;-81
2022/02/11 12:42:51;;;;;;;6.53;5.75;;;6.90;99.90;;;;;;5095608;28;20379;-81
2022/02/11 12:45:22;;;;;;;6.43;5.93;;;7.10;99.90;;;;;;5089666;28;20917;-81
2022/02/11 12:47:51;;;;;;;6.25;5.55;;;7.20;99.90;;;;;;5097327;28;20464;-81
2022/02/11 12:50:20;;;;;;;6.93;5.93;;;7.30;99.90;;;;;;5077018;28;20443;-81
2022/02/11 12:52:46;;;;;;;6.65;6.05;;;7.50;99.90;;;;;;5094999;28;20360;-81
2022/02/11 12:55:19;;;;;;;7.07;6.35;;;7.40;99.90;;;;;;5095448;28;20427;-81
2022/02/11 12:57:52;;;;;;;7.45;6.70;;;7.40;99.90;;;;;;5078680;28;20392;-80
2022/02/11 13:00:27;;;;;;;7.10;6.40;;;7.30;99.90;;;;;;5100676;28;20384;-81
2022/02/11 13:03:01;;;;;;;6.93;6.30;;;7.50;99.90;;;;;;5097055;28;20383;-82
2022/02/11 13:05:29;;;;;;;6.68;5.75;;;7.50;99.90;;;;;;5080489;28;20404;-81
2022/02/11 13:07:57;;;;;;;8.73;6.35;;;7.50;99.90;;;;;;5093881;28;20402;-81
2022/02/11 13:10:30;;;;;;;7.10;6.50;;;7.40;99.90;;;;;;5092878;28;20407;-81
2022/02/11 13:13:02;;;;;;;7.15;6.45;;;7.50;99.90;;;;;;5075306;28;20399;-81
2022/02/11 13:15:30;;;;;;;7.32;6.60;;;7.70;99.90;;;;;;5103701;28;20373;-81
2022/02/11 13:18:07;;;;;;;7.55;6.90;;;7.60;99.90;;;;;;5095350;28;20380;-82
2022/02/11 13:20:44;;;;;;;7.53;6.82;;;7.40;99.90;;;;;;5104942;28;20375;-82
2022/02/11 13:23:17;;;;;;;7.47;6.72;;;7.40;99.90;;;;;;5105081;28;20371;-81
2022/02/11 13:25:43;;;;;;;7.85;6.57;;;7.20;99.90;;;;;;5107302;28;20421;-81
2022/02/11 13:28:14;;;;;;;7.43;6.57;;;7.40;99.90;;;;;;5103813;28;20428;-80
2022/02/11 13:30:44;;;;;;;6.57;5.88;;;7.50;99.90;;;;;;5099734;28;20968;-83
2022/02/11 13:33:35;;;;;;;7.17;6.47;;;7.40;99.90;;;;;;5104644;27;20777;-82
2022/02/11 13:36:04;;;;;;;6.97;6.28;;;7.30;99.90;;;;;;5106243;28;20461;-82
2022/02/11 13:38:36;;;;;;;5.72;5.13;;;7.50;99.90;;;;;;5106224;28;20444;-83
2022/02/11 13:41:08;;;;;;;6.23;5.63;;;7.60;99.90;;;;;;5110072;28;20470;-84
2022/02/11 13:43:52;;;;;;;6.20;5.60;;;7.60;99.90;;;;;;5105509;28;20371;-84
2022/02/11 13:46:29;;;;;;;6.32;5.53;;;7.60;99.90;;;;;;5085518;28;20450;-83
2022/02/11 13:48:56;;;;;;;6.53;5.97;;;7.70;99.90;;;;;;5103937;28;20382;-83
2022/02/11 13:51:22;;;;;;;6.20;5.63;;;7.80;99.90;;;;;;5087671;28;20399;-84
2022/02/11 13:53:52;;;;;;;7.70;5.80;;;7.60;99.90;;;;;;5104094;28;20498;-83
2022/02/11 13:56:34;;;;;;;6.88;6.20;;;7.60;99.90;;;;;;5088553;28;20455;-85
2022/02/11 13:59:15;;;;;;;6.43;5.65;;;7.60;99.90;;;;;;5108455;28;20366;-85
2022/02/11 14:01:44;;;;;;;6.35;5.30;;;7.80;99.90;;;;;;5087829;28;20494;-83
2022/02/11 14:04:11;;;;;;;6.55;5.82;;;7.90;99.90;;;;;;5103537;28;20450;-83
2022/02/11 14:06:50;;;;;;;6.43;5.68;;;7.80;99.90;;;;;;5087985;28;20834;-82
2022/02/11 14:09:37;;;;;;;6.28;5.68;;;7.60;99.90;;;;;;5104258;28;20406;-82
2022/02/11 14:12:05;;;;;;;7.53;6.50;;;7.50;99.90;;;;;;5105348;28;20974;-82
2022/02/11 14:14:34;;;;;;;7.05;6.35;;;7.50;99.90;;;;;;5107815;28;20451;-83
2022/02/11 14:17:02;;;;;;;6.90;6.00;;;7.40;99.90;;;;;;5104435;28;20438;-82
2022/02/11 14:19:28;;;;;;;7.50;6.22;;;7.40;99.90;;;;;;5104371;28;20385;-82
2022/02/11 14:21:56;;;;;;;6.75;5.95;;;7.40;99.90;;;;;;5104912;28;20457;-82
2022/02/11 14:24:22;;;;;;;7.15;6.45;;;7.30;99.90;;;;;;5106546;28;20390;-82
2022/02/11 14:26:49;;;;;;;6.75;6.07;;;7.20;99.90;;;;;;5106040;28;20436;-83
2022/02/11 14:29:15;;;;;;;6.20;5.60;;;7.20;99.90;;;;;;5106773;28;20363;-82
2022/02/11 14:31:42;;;;;;;7.45;6.15;;;7.30;99.90;;;;;;5087104;28;20485;-82
2022/02/11 14:34:10;;;;;;;6.35;5.70;;;7.20;99.90;;;;;;5088476;28;20378;-83
2022/02/11 14:36:38;;;;;;;6.28;5.68;;;7.20;99.90;;;;;;5105856;28;20369;-83
2022/02/11 14:39:04;;;;;;;6.65;6.05;;;7.00;99.90;;;;;;5103906;28;20387;-82
2022/02/11 14:41:48;;;;;;;7.00;5.82;;;7.00;99.90;;;;;;5108634;28;20371;-82
2022/02/11 14:44:18;;;;;;;6.50;5.90;;;7.00;99.90;;;;;;5108152;28;20378;-82
2022/02/11 14:46:45;;;;;;;7.25;6.20;;;7.00;99.90;;;;;;5092208;28;20433;-83
2022/02/11 14:49:10;;;;;;;6.22;5.63;;;7.10;99.90;;;;;;5112205;28;20372;-84
2022/02/11 14:51:37;;;;;;;6.38;5.88;;;6.90;99.90;;;;;;5109251;28;20398;-83
2022/02/11 14:54:08;;;;;;;7.63;6.72;;;7.00;99.90;;;;;;5108962;28;20439;-84
2022/02/11 14:56:34;;;;;;;7.13;6.43;;;6.80;99.90;;;;;;5091241;28;20431;-83
2022/02/11 14:59:00;;;;;;;7.50;6.88;;;6.70;99.90;;;;;;5109963;28;20413;-83
2022/02/11 15:01:25;;;;;;;7.95;7.00;;;6.60;99.90;;;;;;5107844;28;20432;-83
2022/02/11 15:03:51;;;;;;;9.25;8.27;;;6.50;99.90;;;;;;5108733;28;20375;-83
2022/02/11 15:06:17;;;;;;;8.47;7.57;;;6.50;99.90;;;;;;5111497;28;20446;-83
2022/02/11 15:08:42;;;;;;;8.27;7.23;;;6.50;99.90;;;;;;5109396;28;20470;-83
2022/02/11 15:11:08;;;;;;;9.13;8.23;;;6.60;99.90;;;;;;5107988;28;20903;-80
2022/02/11 15:13:34;;;;;;;10.45;8.23;;;6.50;99.90;;;;;;5108706;28;20616;-82
2022/02/11 15:16:00;;;;;;;10.20;8.90;;;6.50;99.90;;;;;;5090873;28;20462;-84
2022/02/11 15:18:26;;;;;;;8.95;8.15;;;6.40;99.90;;;;;;5106777;28;20454;-84
2022/02/11 15:20:55;;;;;;;9.70;8.80;;;6.20;99.90;;;;;;5092228;28;20384;-83
2022/02/11 15:23:24;;;;;;;10.30;9.40;;;6.00;99.90;;;;;;5111911;28;20379;-82
2022/02/11 15:25:49;;;;;;;10.23;9.15;;;5.80;99.90;;;;;;5096884;28;20388;-82
2022/02/11 15:28:15;;;;;;;9.80;8.77;;;5.70;99.90;;;;;;5096771;28;20376;-83
2022/02/11 15:30:41;;;;;;;10.30;9.30;;;5.60;99.90;;;;;;5094208;28;20874;-82
2022/02/11 15:33:06;;;;;;;10.80;9.13;;;5.50;99.90;;;;;;5092838;28;20882;-82
2022/02/11 15:35:32;;;;;;;10.38;9.38;;;5.50;99.90;;;;;;5094970;28;20375;-82
2022/02/11 15:37:58;;;;;;;9.40;8.60;;;5.50;99.90;;;;;;5093253;28;20463;-83
2022/02/11 15:40:27;;;;;;;10.03;9.13;;;5.40;99.90;;;;;;5094344;28;20404;-82
2022/02/11 15:42:54;;;;;;;10.20;9.30;;;5.40;99.90;;;;;;5093816;28;20384;-83
2022/02/11 15:45:23;;;;;;;11.27;10.10;;;5.40;99.90;;;;;;5075812;28;20415;-83
2022/02/11 15:47:49;;;;;;;12.05;10.85;;;5.40;99.90;;;;;;5075234;28;20385;-84
2022/02/11 15:50:14;;;;;;;10.43;9.60;;;5.30;99.90;;;;;;5094457;28;20395;-84
2022/02/11 15:52:40;;;;;;;11.70;10.50;;;5.20;99.90;;;;;;5093398;28;20440;-84
2022/02/11 15:55:06;;;;;;;12.03;10.83;;;5.40;99.90;;;;;;5087726;28;20375;-84
2022/02/11 15:57:32;;;;;;;11.02;10.02;;;5.40;99.90;;;;;;5114526;28;20423;-84
2022/02/11 15:59:57;;;;;;;10.97;9.97;;;5.40;99.90;;;;;;5111945;28;20453;-82
2022/02/11 16:02:23;;;;;;;12.33;9.57;;;5.50;99.90;;;;;;5091344;28;20399;-84
2022/02/11 16:04:49;;;;;;;11.52;10.32;;;5.40;99.90;;;;;;5109188;28;20367;-83
2022/02/11 16:07:14;;;;;;;12.30;11.02;;;5.40;99.90;;;;;;5110019;28;20880;-83
2022/02/11 16:09:40;;;;;;;12.07;10.97;;;5.40;99.90;;;;;;5109381;28;20367;-82
2022/02/11 16:12:06;;;;;;;13.00;11.73;;;5.30;99.90;;;;;;5109240;28;20818;-84
2022/02/11 16:14:33;;;;;;;12.20;11.10;;;5.30;99.90;;;;;;5109207;28;20389;-83
2022/02/11 16:17:00;;;;;;;11.77;10.67;;;5.30;99.90;;;;;;5108377;28;20749;-83
2022/02/11 16:19:27;;;;;;;12.63;11.43;;;5.40;99.90;;;;;;5089222;28;20417;-83
2022/02/11 16:21:54;;;;;;;12.68;11.38;;;5.30;99.90;;;;;;5092045;28;20876;-82
2022/02/11 16:24:19;;;;;;;12.57;11.38;;;5.30;99.90;;;;;;5106547;28;20459;-82
2022/02/11 16:26:45;;;;;;;12.45;11.23;;;5.10;99.90;;;;;;5108567;28;20417;-84
2022/02/11 16:29:10;;;;;;;11.60;10.43;;;5.00;99.90;;;;;;5107512;28;20867;-83
2022/02/11 16:31:36;;;;;;;10.93;9.93;;;5.00;99.90;;;;;;5107517;28;20409;-83
2022/02/11 16:34:02;;;;;;;12.15;10.88;;;4.90;99.90;;;;;;5107849;28;20388;-83
2022/02/11 16:36:29;;;;;;;14.18;11.40;;;4.80;99.90;;;;;;5109857;28;20879;-82